Time;durP1;ratioP1;P1;durP2;ratioP2;P2;SDS_P1;SDS_P2;PMS_P1;PMS_P2;Temp;Humidity;BMP_temperature;BMP_pressure;BME280_temperature;BME280_humidity;BME280_pressure;Samples;Min_cycle;Max_cycle;Signal;HPM_P1;HPM_P2
2021/10/08 00:00:40;;;;;;;0.35;0.30;;;;;;;26.00;35.85;97649.50;5030364;28;20036;-29
2021/10/08 00:03:05;;;;;;;0.30;0.30;;;;;;;25.98;35.81;97643.44;5029174;28;20022;-34
2021/10/08 00:05:31;;;;;;;0.30;0.30;;;;;;;25.99;35.82;97646.00;5029508;28;20037;-31
2021/10/08 00:07:58;;;;;;;0.20;0.20;;;;;;;25.95;35.88;97636.53;5027398;28;20196;-31
2021/10/08 00:10:24;;;;;;;0.60;0.40;;;;;;;25.98;35.85;97639.03;5028165;28;20075;-31
2021/10/08 00:12:49;;;;;;;0.57;0.30;;;;;;;25.98;35.91;97641.66;5030586;28;20024;-37
2021/10/08 00:15:14;;;;;;;0.30;0.30;;;;;;;25.98;35.79;97636.41;5029622;28;20024;-29
2021/10/08 00:17:40;;;;;;;0.30;0.30;;;;;;;25.98;35.82;97636.41;5027188;28;20036;-28
2021/10/08 00:20:06;;;;;;;0.30;0.30;;;;;;;25.98;35.85;97641.66;5028226;28;20021;-38
2021/10/08 00:22:31;;;;;;;0.93;0.20;;;;;;;25.97;35.96;97639.94;5028714;28;20430;-45
2021/10/08 00:24:56;;;;;;;0.57;0.32;;;;;;;25.98;35.82;97630.28;5028181;28;20059;-32
2021/10/08 00:27:22;;;;;;;0.40;0.40;;;;;;;25.96;35.89;97643.50;5028655;28;20082;-39
2021/10/08 00:29:47;;;;;;;0.30;0.30;;;;;;;25.97;35.89;97637.31;5028061;28;20702;-36
2021/10/08 00:32:13;;;;;;;0.38;0.30;;;;;;;25.97;35.74;97634.69;5029006;28;20036;-37
2021/10/08 00:34:38;;;;;;;0.20;0.20;;;;;;;25.96;35.66;97638.22;5026757;28;20029;-31
2021/10/08 00:37:03;;;;;;;0.30;0.30;;;;;;;25.95;35.77;97637.41;5026964;28;20013;-29
2021/10/08 00:39:29;;;;;;;0.20;0.20;;;;;;;25.95;35.73;97636.53;5028704;28;20028;-33
2021/10/08 00:41:54;;;;;;;0.45;0.45;;;;;;;25.95;35.77;97628.66;5029652;28;20836;-36
2021/10/08 00:44:20;;;;;;;0.40;0.40;;;;;;;25.96;35.89;97638.22;5027727;28;20038;-37
2021/10/08 00:46:45;;;;;;;0.60;0.50;;;;;;;25.95;35.83;97631.28;5027249;28;20041;-33
2021/10/08 00:49:11;;;;;;;0.30;0.30;;;;;;;25.95;35.89;97626.03;5027651;28;20131;-34
2021/10/08 00:51:36;;;;;;;0.30;0.30;;;;;;;25.95;35.87;97628.66;5027878;28;20035;-34
2021/10/08 00:54:01;;;;;;;0.38;0.30;;;;;;;25.94;35.73;97624.31;5031356;28;20044;-33
2021/10/08 00:56:27;;;;;;;0.28;0.28;;;;;;;25.94;35.89;97626.94;5024874;28;20040;-32
2021/10/08 00:58:52;;;;;;;0.40;0.40;;;;;;;25.94;35.73;97624.31;5028598;28;20012;-30
2021/10/08 01:01:18;;;;;;;0.30;0.30;;;;;;;25.94;35.89;97624.31;5025993;28;20043;-34
2021/10/08 01:03:43;;;;;;;0.50;0.35;;;;;;;25.92;35.80;97624.38;5029933;28;20036;-33
2021/10/08 01:06:09;;;;;;;0.30;0.30;;;;;;;25.92;35.79;97620.88;5029684;28;20040;-37
2021/10/08 01:08:35;;;;;;;0.30;0.30;;;;;;;25.94;35.93;97619.06;5024492;28;20036;-36
2021/10/08 01:11:00;;;;;;;0.35;0.35;;;;;;;25.92;35.81;97615.63;5026096;28;20415;-35
2021/10/08 01:13:26;;;;;;;0.30;0.30;;;;;;;25.92;35.69;97615.63;5016357;28;20025;-34
2021/10/08 01:15:54;;;;;;;0.20;0.20;;;;;;;25.92;35.87;97610.38;5028466;28;20025;-33
2021/10/08 01:18:20;;;;;;;0.50;0.50;;;;;;;25.92;35.82;97607.75;5027219;28;20080;-30
2021/10/08 01:20:45;;;;;;;0.52;0.50;;;;;;;25.93;35.86;97606.88;5028552;28;20676;-32
2021/10/08 01:23:11;;;;;;;0.38;0.38;;;;;;;25.93;35.76;97606.88;5026530;28;20054;-37
2021/10/08 01:25:36;;;;;;;0.25;0.25;;;;;;;25.92;35.86;97605.13;5025788;28;20059;-31
2021/10/08 01:28:05;;;;;;;0.30;0.30;;;;;;;25.92;35.79;97606.00;5027508;28;20020;-32
2021/10/08 01:30:30;;;;;;;0.30;0.30;;;;;;;25.92;35.76;97599.88;5026495;28;20438;-32
2021/10/08 01:32:56;;;;;;;0.40;0.40;;;;;;;25.90;35.75;97604.34;5026605;28;20033;-36
2021/10/08 01:35:21;;;;;;;0.30;0.30;;;;;;;25.91;35.70;97599.03;5026798;28;20036;-35
2021/10/08 01:37:47;;;;;;;0.30;0.30;;;;;;;25.91;35.75;97598.19;5026637;28;20048;-33
2021/10/08 01:40:12;;;;;;;0.30;0.30;;;;;;;25.91;35.67;97598.19;5029671;28;20396;-31
2021/10/08 01:42:38;;;;;;;0.32;0.32;;;;;;;25.90;35.75;97599.94;5028340;28;20486;-30
2021/10/08 01:45:04;;;;;;;0.47;0.30;;;;;;;25.90;35.73;97593.84;5031985;28;20450;-37
2021/10/08 01:47:30;;;;;;;0.20;0.20;;;;;;;25.89;35.88;97595.59;5028416;28;20017;-32
2021/10/08 01:49:55;;;;;;;0.30;0.30;;;;;;;25.90;35.76;97599.94;5027599;28;20039;-36
2021/10/08 01:52:21;;;;;;;0.35;0.30;;;;;;;25.89;35.89;97594.78;5025660;28;20025;-34
2021/10/08 01:54:46;;;;;;;0.50;0.30;;;;;;;25.90;35.78;97596.47;5028870;28;20028;-32
2021/10/08 01:57:12;;;;;;;0.43;0.30;;;;;;;25.89;35.69;97600.03;5028778;28;20060;-35
2021/10/08 01:59:37;;;;;;;0.28;0.28;;;;;;;25.89;35.81;97605.28;5034605;28;20033;-32
2021/10/08 02:02:03;;;;;;;0.30;0.30;;;;;;;25.89;35.72;97600.03;5032646;28;21619;-35
2021/10/08 02:04:28;;;;;;;0.38;0.30;;;;;;;25.89;35.78;97597.41;5032206;28;20056;-31
2021/10/08 02:06:54;;;;;;;0.30;0.30;;;;;;;25.89;35.89;97600.03;5030783;28;20602;-36
2021/10/08 02:09:19;;;;;;;0.47;0.30;;;;;;;25.88;35.70;97593.03;5031839;28;20821;-34
2021/10/08 02:11:45;;;;;;;0.38;0.38;;;;;;;25.88;35.86;97590.41;5029348;28;20033;-33
2021/10/08 02:14:10;;;;;;;0.22;0.22;;;;;;;25.88;35.88;97593.03;5031625;28;20037;-37
2021/10/08 02:16:36;;;;;;;1.00;0.40;;;;;;;25.87;35.86;97599.22;5030876;28;20029;-30
2021/10/08 02:19:01;;;;;;;0.30;0.30;;;;;;;25.87;35.72;97596.59;5032634;28;20238;-34
2021/10/08 02:21:26;;;;;;;0.30;0.30;;;;;;;25.86;35.83;97597.53;5030954;28;20029;-31
2021/10/08 02:23:52;;;;;;;0.20;0.20;;;;;;;25.85;35.87;97598.44;5031611;28;20036;-37
2021/10/08 02:26:18;;;;;;;0.40;0.30;;;;;;;25.85;35.87;97601.91;5029925;28;20042;-34
2021/10/08 02:28:43;;;;;;;1.02;0.40;;;;;;;25.86;35.76;97600.13;5030127;28;20526;-31
2021/10/08 02:31:09;;;;;;;0.40;0.30;;;;;;;25.84;35.87;97597.56;5030263;28;20068;-34
2021/10/08 02:33:34;;;;;;;0.40;0.40;;;;;;;25.86;35.88;97605.41;5030965;28;20032;-33
2021/10/08 02:36:04;;;;;;;0.38;0.30;;;;;;;25.85;35.88;97603.69;5030066;28;20598;-33
2021/10/08 02:38:29;;;;;;;0.30;0.30;;;;;;;25.80;35.81;97599.47;5029742;28;20436;-31
2021/10/08 02:40:55;;;;;;;0.22;0.20;;;;;;;25.82;35.66;97608.13;5018101;28;20039;-35
2021/10/08 02:43:20;;;;;;;0.30;0.30;;;;;;;25.83;35.86;97601.97;5031521;28;20036;-31
2021/10/08 02:45:45;;;;;;;0.52;0.32;;;;;;;25.83;35.74;97601.97;5031141;28;20052;-32
2021/10/08 02:48:11;;;;;;;0.32;0.20;;;;;;;25.83;35.74;97599.34;5029023;28;20037;-33
2021/10/08 02:50:36;;;;;;;0.30;0.30;;;;;;;25.83;35.85;97601.13;5029421;28;20459;-36
2021/10/08 02:53:02;;;;;;;0.20;0.20;;;;;;;25.82;35.89;97600.25;5031860;28;20033;-32
2021/10/08 02:55:27;;;;;;;0.25;0.25;;;;;;;25.82;35.75;97599.44;5030761;28;20082;-35
2021/10/08 02:57:52;;;;;;;0.68;0.47;;;;;;;25.81;35.78;97597.69;5031284;28;20804;-35
2021/10/08 03:00:18;;;;;;;0.35;0.30;;;;;;;25.82;35.97;97597.63;5032045;28;20031;-30
2021/10/08 03:02:43;;;;;;;0.30;0.25;;;;;;;25.80;35.92;97591.59;5030738;28;20032;-33
2021/10/08 03:05:09;;;;;;;0.20;0.20;;;;;;;25.81;35.84;97601.19;5030023;28;20033;-34
2021/10/08 03:07:34;;;;;;;0.35;0.30;;;;;;;25.82;35.68;97609.94;5029180;28;20816;-32
2021/10/08 03:10:00;;;;;;;0.50;0.40;;;;;;;25.82;35.85;97604.69;5030084;28;20091;-30
2021/10/08 03:12:25;;;;;;;0.30;0.30;;;;;;;25.80;35.77;97607.34;5030249;28;20021;-33
2021/10/08 03:14:51;;;;;;;0.30;0.30;;;;;;;25.80;35.83;97607.34;5028836;28;20036;-34
2021/10/08 03:17:16;;;;;;;0.32;0.28;;;;;;;25.80;35.88;97607.34;5027469;28;20575;-33
2021/10/08 03:19:41;;;;;;;0.40;0.30;;;;;;;25.80;35.75;97606.50;5028862;28;20028;-30
2021/10/08 03:22:08;;;;;;;0.30;0.30;;;;;;;25.80;35.69;97607.34;5028271;28;20090;-33
2021/10/08 03:24:33;;;;;;;0.17;0.17;;;;;;;25.78;35.70;97601.28;5028485;28;20501;-31
2021/10/08 03:26:59;;;;;;;0.20;0.20;;;;;;;25.80;35.75;97612.59;5031560;28;20033;-30
2021/10/08 03:29:24;;;;;;;0.30;0.30;;;;;;;25.78;35.76;97601.28;5030038;28;20029;-32
2021/10/08 03:31:49;;;;;;;0.43;0.40;;;;;;;25.77;35.92;97596.97;5033007;28;20155;-36
2021/10/08 03:34:15;;;;;;;0.22;0.22;;;;;;;25.78;35.82;97603.91;5028950;28;20087;-32
2021/10/08 03:39:06;;;;;;;0.40;0.40;;;;;;;25.77;35.65;97610.09;5027884;28;20021;-36
2021/10/08 03:41:31;;;;;;;0.35;0.22;;;;;;;25.77;35.77;97598.72;5029902;28;20040;-34
2021/10/08 03:43:57;;;;;;;0.30;0.30;;;;;;;25.78;35.67;97605.72;5029990;28;20028;-33
2021/10/08 03:46:26;;;;;;;0.30;0.30;;;;;;;25.76;35.78;97605.78;5031166;28;20036;-34
2021/10/08 03:51:46;;;;;;;0.17;0.17;;;;;;;25.77;35.75;97602.22;5012340;28;20045;-32
2021/10/08 03:54:12;;;;;;;0.20;0.20;;;;;;;25.77;35.82;97602.22;5031743;28;21040;-38
2021/10/08 03:56:38;;;;;;;0.20;0.20;;;;;;;25.77;35.86;97606.59;5027917;28;20025;-35
2021/10/08 03:59:03;;;;;;;0.20;0.20;;;;;;;25.76;35.74;97608.41;5026042;28;20511;-38
2021/10/08 04:01:29;;;;;;;0.30;0.30;;;;;;;25.76;35.67;97603.16;5029629;28;20029;-37
2021/10/08 04:03:54;;;;;;;0.38;0.20;;;;;;;25.76;35.67;97603.16;5025086;28;20024;-36
2021/10/08 04:06:20;;;;;;;0.30;0.30;;;;;;;25.76;35.61;97599.66;5029539;28;20036;-33
2021/10/08 04:08:45;;;;;;;0.28;0.25;;;;;;;25.75;35.60;97611.06;5028547;28;20034;-35
2021/10/08 04:11:10;;;;;;;0.10;0.10;;;;;;;25.75;35.78;97609.31;5033257;28;20033;-33
2021/10/08 04:13:36;;;;;;;0.32;0.32;;;;;;;25.75;35.65;97614.56;5030974;28;20075;-35
2021/10/08 04:16:02;;;;;;;0.20;0.20;;;;;;;25.75;35.61;97614.56;5023010;28;20049;-37
2021/10/08 04:18:27;;;;;;;0.30;0.20;;;;;;;25.74;35.78;97612.84;5027596;28;20032;-38
2021/10/08 04:20:52;;;;;;;0.30;0.30;;;;;;;25.74;35.71;97620.72;5029803;28;20033;-32
2021/10/08 04:23:18;;;;;;;0.22;0.22;;;;;;;25.74;35.60;97615.47;5029562;28;20595;-34
2021/10/08 04:25:44;;;;;;;1.23;0.40;;;;;;;25.74;35.73;97620.72;5028035;28;20635;-33
2021/10/08 04:28:09;;;;;;;0.30;0.30;;;;;;;25.74;35.71;97619.88;5026860;28;20119;-30
2021/10/08 04:30:35;;;;;;;0.32;0.30;;;;;;;25.74;35.65;97623.34;5029900;28;20079;-36
2021/10/08 04:33:00;;;;;;;0.40;0.40;;;;;;;25.74;35.55;97614.63;5026419;28;20060;-37
2021/10/08 04:35:26;;;;;;;0.30;0.30;;;;;;;25.74;35.63;97622.50;5030120;28;20028;-34
2021/10/08 04:37:51;;;;;;;0.52;0.40;;;;;;;25.73;35.64;97618.16;5027953;28;20048;-34
2021/10/08 04:40:17;;;;;;;0.30;0.30;;;;;;;25.73;35.73;97616.38;5028561;28;20759;-36
2021/10/08 04:42:42;;;;;;;0.28;0.28;;;;;;;25.72;35.60;97613.81;5029833;28;20036;-31
2021/10/08 04:45:08;;;;;;;0.30;0.30;;;;;;;25.73;35.74;97613.75;5026160;28;20043;-34
2021/10/08 04:47:33;;;;;;;0.30;0.30;;;;;;;25.71;35.61;97610.34;5030372;28;20052;-31
2021/10/08 04:49:59;;;;;;;0.20;0.20;;;;;;;25.71;35.68;97610.34;5026773;28;20025;-35
2021/10/08 04:52:24;;;;;;;0.20;0.20;;;;;;;25.71;35.70;97615.59;5027254;28;20400;-36
2021/10/08 04:54:49;;;;;;;0.30;0.30;;;;;;;25.72;35.60;97616.44;5028078;28;20114;-35
2021/10/08 04:57:15;;;;;;;0.30;0.30;;;;;;;25.71;35.57;97615.59;5025890;28;20025;-38
2021/10/08 04:59:40;;;;;;;0.20;0.20;;;;;;;25.71;35.66;97618.22;5030989;28;20766;-29
2021/10/08 05:02:06;;;;;;;0.30;0.22;;;;;;;25.71;35.54;97623.47;5028607;28;20040;-36
2021/10/08 05:04:31;;;;;;;0.35;0.35;;;;;;;25.70;35.62;97620.00;5023968;28;20225;-35
2021/10/08 05:06:56;;;;;;;0.30;0.22;;;;;;;25.70;35.70;97619.13;5025234;28;20029;-34
2021/10/08 05:09:22;;;;;;;0.20;0.20;;;;;;;25.71;35.63;97618.22;5032560;28;20025;-39
2021/10/08 05:11:47;;;;;;;0.63;0.40;;;;;;;25.71;35.63;97623.47;5030332;28;20376;-38
2021/10/08 05:14:13;;;;;;;0.25;0.25;;;;;;;25.70;35.66;97621.75;5027865;28;20588;-33
2021/10/08 05:16:38;;;;;;;0.45;0.40;;;;;;;25.69;35.61;97614.78;5026278;28;20032;-35
2021/10/08 05:19:04;;;;;;;0.20;0.20;;;;;;;25.70;35.49;97611.25;5029063;28;20443;-37
2021/10/08 05:21:29;;;;;;;0.40;0.30;;;;;;;25.69;35.52;97614.78;5027799;28;20041;-32
2021/10/08 05:23:55;;;;;;;0.40;0.38;;;;;;;25.69;35.65;97620.91;5028462;28;20128;-34
2021/10/08 05:26:20;;;;;;;0.20;0.20;;;;;;;25.70;35.54;97616.50;5027016;28;20232;-35
2021/10/08 05:28:46;;;;;;;0.50;0.30;;;;;;;25.68;35.49;97615.72;5026931;28;20036;-38
2021/10/08 05:31:11;;;;;;;0.60;0.40;;;;;;;25.68;35.65;97616.59;5029148;28;20040;-36
2021/10/08 05:33:36;;;;;;;0.30;0.30;;;;;;;25.68;35.51;97618.34;5031664;28;20021;-33
2021/10/08 05:36:02;;;;;;;0.30;0.30;;;;;;;25.68;35.61;97618.34;5032337;28;20404;-38
2021/10/08 05:38:27;;;;;;;0.75;0.40;;;;;;;25.67;35.55;97614.00;5014375;28;20111;-37
2021/10/08 05:40:54;;;;;;;0.20;0.20;;;;;;;25.68;35.64;97626.22;5030018;28;20033;-34
2021/10/08 05:43:20;;;;;;;0.40;0.40;;;;;;;25.67;35.66;97616.63;5031397;28;20036;-34
2021/10/08 05:45:45;;;;;;;0.20;0.20;;;;;;;25.66;35.68;97615.78;5028712;28;20060;-30
2021/10/08 05:48:10;;;;;;;0.43;0.28;;;;;;;25.66;35.57;97614.94;5028431;28;20048;-29
2021/10/08 05:50:36;;;;;;;0.20;0.20;;;;;;;25.67;35.51;97621.88;5033144;28;20033;-38
2021/10/08 05:53:02;;;;;;;0.43;0.22;;;;;;;25.66;35.62;97626.28;5030336;28;20029;-34
2021/10/08 05:55:28;;;;;;;0.82;0.47;;;;;;;25.65;35.55;97614.06;5032182;28;20116;-34
2021/10/08 05:57:53;;;;;;;0.30;0.30;;;;;;;25.65;35.55;97616.69;5027599;28;20506;-32
2021/10/08 06:00:18;;;;;;;0.85;0.40;;;;;;;25.66;35.52;97626.28;5031441;28;20032;-35
2021/10/08 06:02:44;;;;;;;0.55;0.30;;;;;;;25.65;35.48;97623.69;5033614;28;20032;-36
2021/10/08 06:05:09;;;;;;;0.30;0.30;;;;;;;25.65;35.56;97624.56;5027410;28;20029;-38
2021/10/08 06:07:34;;;;;;;0.43;0.30;;;;;;;25.65;35.52;97621.94;5031937;28;20028;-32
2021/10/08 06:10:00;;;;;;;1.42;0.40;;;;;;;25.65;35.54;97621.06;5028823;28;20462;-34
2021/10/08 06:12:25;;;;;;;0.43;0.30;;;;;;;25.65;35.64;97621.06;5028929;28;20037;-33
2021/10/08 06:14:51;;;;;;;0.30;0.30;;;;;;;25.65;35.55;97628.94;5029336;28;20033;-35
2021/10/08 06:17:16;;;;;;;0.30;0.30;;;;;;;25.66;35.65;97628.06;5031084;28;20805;-33
2021/10/08 06:19:41;;;;;;;0.40;0.40;;;;;;;25.64;35.53;97622.00;5024252;28;20283;-35
2021/10/08 06:22:07;;;;;;;0.55;0.25;;;;;;;25.65;35.62;97634.19;5029116;28;20099;-37
2021/10/08 06:24:32;;;;;;;0.35;0.30;;;;;;;25.65;35.47;97639.44;5029505;28;20052;-38
2021/10/08 06:26:58;;;;;;;0.30;0.30;;;;;;;25.64;35.68;97636.00;5028547;28;20024;-30
2021/10/08 06:29:23;;;;;;;0.63;0.63;;;;;;;25.63;35.53;97642.13;5030764;28;20045;-33
2021/10/08 06:31:49;;;;;;;0.88;0.40;;;;;;;25.64;35.57;97643.00;5033592;28;20036;-39
2021/10/08 06:34:14;;;;;;;0.30;0.30;;;;;;;25.65;35.53;97642.06;5031004;28;20032;-36
2021/10/08 06:36:39;;;;;;;0.25;0.25;;;;;;;25.64;35.68;97643.88;5025997;28;20040;-36
2021/10/08 06:39:05;;;;;;;0.20;0.20;;;;;;;25.64;35.65;97643.00;5026500;28;20884;-38
2021/10/08 06:41:30;;;;;;;0.40;0.40;;;;;;;25.64;35.60;97643.88;5028935;28;20029;-33
2021/10/08 06:43:56;;;;;;;0.30;0.30;;;;;;;25.64;35.48;97645.63;5027033;28;20033;-31
2021/10/08 06:46:21;;;;;;;1.00;0.30;;;;;;;25.63;35.71;97638.66;5029783;28;20033;-31
2021/10/08 06:48:47;;;;;;;0.30;0.30;;;;;;;25.63;35.66;97638.66;5028016;28;20036;-37
2021/10/08 06:51:12;;;;;;;0.60;0.50;;;;;;;25.64;35.47;97643.00;5029218;28;20075;-35
2021/10/08 06:53:37;;;;;;;0.63;0.50;;;;;;;25.63;35.68;97641.28;5029209;28;20043;-34
2021/10/08 06:56:03;;;;;;;0.50;0.50;;;;;;;25.64;35.50;97640.38;5028199;28;20506;-33
2021/10/08 06:58:28;;;;;;;0.55;0.50;;;;;;;25.65;35.63;97644.69;5029126;28;20025;-34
2021/10/08 07:00:55;;;;;;;0.25;0.25;;;;;;;25.65;35.77;97639.44;5030149;28;20033;-33
2021/10/08 07:03:21;;;;;;;0.38;0.30;;;;;;;25.64;35.56;97643.00;5032849;28;20026;-33
2021/10/08 07:05:46;;;;;;;0.47;0.30;;;;;;;25.66;35.74;97641.19;5033228;28;20039;-35
2021/10/08 07:08:12;;;;;;;0.52;0.50;;;;;;;25.68;35.54;97644.59;5027557;28;20037;-32
2021/10/08 07:10:39;;;;;;;0.30;0.30;;;;;;;25.67;35.54;97633.22;5027138;28;20126;-29
2021/10/08 07:13:04;;;;;;;0.40;0.40;;;;;;;25.64;35.56;97637.75;5030539;28;20470;-37
2021/10/08 07:15:30;;;;;;;0.40;0.40;;;;;;;25.68;35.57;97647.22;5029348;28;20029;-37
2021/10/08 07:17:55;;;;;;;0.50;0.43;;;;;;;25.69;35.55;97643.66;5025095;28;20029;-34
2021/10/08 07:20:25;;;;;;;0.40;0.40;;;;;;;25.70;35.64;97632.25;5035253;28;20040;-34
2021/10/08 07:22:51;;;;;;;0.43;0.38;;;;;;;25.71;35.63;97639.22;5029718;28;20140;-35
2021/10/08 07:25:16;;;;;;;0.43;0.43;;;;;;;25.72;35.57;97635.69;5031484;28;20584;-37
2021/10/08 07:27:42;;;;;;;0.50;0.50;;;;;;;25.71;35.71;97649.72;5029336;28;20037;-37
2021/10/08 07:30:08;;;;;;;0.40;0.40;;;;;;;25.73;35.66;97641.81;5034217;28;20095;-37
2021/10/08 07:32:34;;;;;;;0.40;0.40;;;;;;;25.73;35.73;97642.63;5028738;28;20426;-31
2021/10/08 07:34:59;;;;;;;0.43;0.30;;;;;;;25.74;35.66;97639.09;5027699;28;20055;-34
2021/10/08 07:37:24;;;;;;;0.57;0.50;;;;;;;25.74;35.70;97644.34;5029625;28;20369;-35
2021/10/08 07:39:50;;;;;;;0.55;0.40;;;;;;;25.74;35.58;97644.34;5029476;28;20029;-32
2021/10/08 07:42:16;;;;;;;0.40;0.40;;;;;;;25.76;35.57;97647.78;5028596;28;20657;-36
2021/10/08 07:44:41;;;;;;;0.25;0.25;;;;;;;25.73;35.55;97639.19;5029560;28;20094;-31
2021/10/08 07:47:07;;;;;;;0.40;0.40;;;;;;;25.76;35.69;97642.53;5030796;28;20497;-36
2021/10/08 07:49:32;;;;;;;0.43;0.43;;;;;;;25.77;35.68;97641.59;5032344;28;20029;-32
2021/10/08 07:51:57;;;;;;;0.55;0.50;;;;;;;25.77;35.55;97638.97;5028787;28;20904;-30
2021/10/08 07:54:23;;;;;;;0.50;0.50;;;;;;;25.78;35.71;97637.22;5029401;28;20467;-34
2021/10/08 07:56:48;;;;;;;0.80;0.30;;;;;;;25.79;35.64;97638.91;5027054;28;20321;-36
2021/10/08 07:59:14;;;;;;;0.40;0.40;;;;;;;25.79;35.55;97639.78;5027163;28;20029;-31
2021/10/08 08:01:39;;;;;;;0.30;0.30;;;;;;;25.80;35.77;97632.75;5024069;28;20033;-31
2021/10/08 08:04:04;;;;;;;0.45;0.40;;;;;;;25.79;35.64;97629.28;5031136;28;20028;-35
2021/10/08 08:06:30;;;;;;;0.40;0.40;;;;;;;25.80;35.53;97632.75;5030213;28;20408;-31
2021/10/08 08:08:55;;;;;;;0.57;0.50;;;;;;;25.80;35.77;97628.34;5026883;28;20037;-33
2021/10/08 08:11:21;;;;;;;0.60;0.40;;;;;;;25.80;35.67;97628.34;5012482;28;20033;-37
2021/10/08 08:13:46;;;;;;;0.43;0.40;;;;;;;25.80;35.58;97628.34;5032859;28;20025;-36
2021/10/08 08:16:11;;;;;;;0.43;0.43;;;;;;;25.80;35.81;97628.34;5015181;28;20139;-34
2021/10/08 08:18:37;;;;;;;0.55;0.50;;;;;;;25.81;35.60;97627.44;5034050;28;20505;-31
2021/10/08 08:21:03;;;;;;;0.50;0.40;;;;;;;25.80;35.75;97622.25;5011673;28;20033;-36
2021/10/08 08:23:28;;;;;;;0.30;0.30;;;;;;;25.81;35.76;97624.81;5029787;28;20264;-32
2021/10/08 08:25:55;;;;;;;0.40;0.40;;;;;;;25.80;35.78;97623.09;5029239;28;20025;-33
2021/10/08 08:28:21;;;;;;;0.40;0.30;;;;;;;25.81;35.74;97623.94;5024802;28;20039;-32
2021/10/08 08:30:46;;;;;;;0.30;0.30;;;;;;;25.81;35.88;97619.56;5024957;28;20049;-35
2021/10/08 08:33:12;;;;;;;0.40;0.38;;;;;;;25.80;35.77;97624.88;5026008;28;20032;-32
2021/10/08 08:35:38;;;;;;;1.95;0.45;;;;;;;25.81;35.90;97623.94;5030366;28;20027;-35
2021/10/08 08:38:03;;;;;;;0.50;0.50;;;;;;;25.81;35.74;97618.69;5029620;28;20149;-34
2021/10/08 08:40:29;;;;;;;0.60;0.40;;;;;;;25.81;35.85;97618.69;5014706;28;20025;-31
2021/10/08 08:42:56;;;;;;;0.63;0.40;;;;;;;25.81;35.87;97616.06;5014133;28;20548;-33
2021/10/08 08:45:22;;;;;;;0.50;0.50;;;;;;;25.82;35.64;97616.00;5025083;28;20037;-37
2021/10/08 08:48:01;;;;;;;0.55;0.50;;;;;;;25.82;35.86;97616.00;5027983;28;20043;-34
2021/10/08 08:50:28;;;;;;;0.70;0.50;;;;;;;25.82;35.77;97621.25;5032079;28;20029;-34
2021/10/08 08:52:53;;;;;;;0.50;0.50;;;;;;;25.82;35.89;97615.19;5025289;28;20029;-29
2021/10/08 08:55:19;;;;;;;0.30;0.30;;;;;;;25.82;35.85;97609.94;5028178;28;20031;-38
2021/10/08 08:57:45;;;;;;;0.35;0.35;;;;;;;25.82;35.97;97615.19;5030470;28;20031;-35
2021/10/08 09:00:16;;;;;;;0.75;0.50;;;;;;;25.83;35.73;97611.63;5028108;28;20820;-32
2021/10/08 09:02:41;;;;;;;0.55;0.50;;;;;;;25.82;35.98;97616.00;5030157;28;20803;-34
2021/10/08 09:05:17;;;;;;;0.60;0.60;;;;;;;25.83;35.84;97617.72;5024861;28;20040;-35
2021/10/08 09:07:43;;;;;;;0.60;0.60;;;;;;;25.82;35.79;97616.00;5012418;28;20510;-33
2021/10/08 09:10:17;;;;;;;0.45;0.45;;;;;;;25.83;35.88;97617.72;5029912;28;20029;-31
2021/10/08 09:12:43;;;;;;;0.60;0.60;;;;;;;25.83;36.01;97612.47;5033821;28;20020;-36
2021/10/08 09:15:08;;;;;;;0.50;0.43;;;;;;;25.83;35.85;97614.25;5036765;28;20112;-35
2021/10/08 09:17:34;;;;;;;0.52;0.40;;;;;;;25.81;36.18;97614.31;5017323;28;20055;-37
2021/10/08 09:20:04;;;;;;;0.43;0.40;;;;;;;25.80;35.97;97607.34;5033735;28;20033;-38
2021/10/08 09:22:39;;;;;;;0.50;0.50;;;;;;;25.83;36.05;97612.47;5034531;28;20550;-32
2021/10/08 09:25:26;;;;;;;1.02;0.50;;;;;;;25.82;35.83;97605.50;5036221;28;20045;-36
2021/10/08 09:28:03;;;;;;;0.50;0.50;;;;;;;25.83;35.84;97601.97;5034212;28;20160;-38
2021/10/08 09:30:40;;;;;;;0.40;0.40;;;;;;;25.84;35.98;97605.44;5034430;28;20037;-37
2021/10/08 09:33:07;;;;;;;0.73;0.52;;;;;;;25.83;35.92;97607.22;5033104;28;20158;-33
2021/10/08 09:35:33;;;;;;;1.08;0.50;;;;;;;25.82;35.63;97609.94;5034977;28;20064;-28
2021/10/08 09:38:08;;;;;;;1.00;0.47;;;;;;;25.84;35.86;97610.72;5022588;28;20500;-34
2021/10/08 09:40:41;;;;;;;1.05;0.57;;;;;;;25.83;35.80;97612.47;5034997;28;20024;-37
2021/10/08 09:43:08;;;;;;;0.40;0.40;;;;;;;25.84;35.82;97608.06;5034447;28;20071;-36
2021/10/08 09:45:41;;;;;;;0.65;0.52;;;;;;;25.83;35.91;97612.47;5034752;28;20029;-31
2021/10/08 09:48:07;;;;;;;0.40;0.40;;;;;;;25.83;35.86;97617.72;5033611;28;20528;-34
2021/10/08 09:50:32;;;;;;;0.50;0.50;;;;;;;25.86;35.88;97621.16;5031560;28;20113;-33
2021/10/08 09:53:08;;;;;;;0.50;0.50;;;;;;;25.85;36.04;97629.94;5033985;28;20114;-31
2021/10/08 09:55:33;;;;;;;0.93;0.40;;;;;;;25.86;35.90;97623.78;5035087;28;20020;-31
2021/10/08 09:57:59;;;;;;;0.45;0.45;;;;;;;25.86;35.79;97621.16;5031011;28;20521;-36
2021/10/08 10:00:47;;;;;;;1.00;0.70;;;;;;;25.86;36.04;97627.25;5034217;28;20498;-35
2021/10/08 10:03:17;;;;;;;0.57;0.50;;;;;;;25.87;35.95;97622.84;5035955;28;20032;-37
2021/10/08 10:05:42;;;;;;;0.35;0.35;;;;;;;25.87;35.98;97625.47;5034794;28;20099;-29
2021/10/08 10:08:07;;;;;;;0.60;0.60;;;;;;;25.87;35.87;97628.09;5036804;28;20086;-33
2021/10/08 10:10:34;;;;;;;1.25;0.50;;;;;;;25.87;35.97;97623.72;5019852;28;20082;-31
2021/10/08 10:13:00;;;;;;;1.38;0.50;;;;;;;25.87;35.97;97618.47;5035918;28;20109;-33
2021/10/08 10:15:26;;;;;;;0.45;0.40;;;;;;;25.88;36.00;97624.56;5033395;28;20025;-34
2021/10/08 10:17:52;;;;;;;1.00;0.50;;;;;;;25.87;36.03;97618.47;5029927;28;20025;-34
2021/10/08 10:20:17;;;;;;;0.40;0.40;;;;;;;25.87;35.85;97623.72;5013480;28;20029;-37
2021/10/08 10:22:43;;;;;;;0.40;0.40;;;;;;;25.89;36.04;97618.41;5031080;28;20029;-33
2021/10/08 10:25:10;;;;;;;0.50;0.50;;;;;;;25.87;36.06;97621.09;5033407;28;20031;-36
2021/10/08 10:27:36;;;;;;;1.13;0.52;;;;;;;25.88;36.04;97619.31;5030858;28;20026;-33
2021/10/08 10:30:04;;;;;;;0.50;0.50;;;;;;;25.88;35.92;97622.78;5029543;28;21025;-33
2021/10/08 10:32:30;;;;;;;0.50;0.50;;;;;;;25.89;35.99;97621.03;5029101;28;20029;-31
2021/10/08 10:34:55;;;;;;;0.50;0.50;;;;;;;25.88;35.93;97616.69;5015872;28;20658;-33
2021/10/08 10:37:42;;;;;;;0.75;0.50;;;;;;;25.87;36.10;97612.34;5021971;28;20060;-35
2021/10/08 10:40:21;;;;;;;0.98;0.52;;;;;;;25.89;35.95;97618.41;5035819;28;20167;-34
2021/10/08 10:43:07;;;;;;;0.63;0.50;;;;;;;25.89;35.95;97605.28;5032032;28;20450;-28
2021/10/08 10:45:32;;;;;;;0.68;0.50;;;;;;;25.89;36.05;97613.16;5018123;28;20042;-34
2021/10/08 10:48:24;;;;;;;0.50;0.50;;;;;;;25.88;36.03;97616.69;5029326;28;20434;-33
2021/10/08 10:51:20;;;;;;;0.50;0.38;;;;;;;25.88;36.03;97614.91;5030287;28;20032;-32
2021/10/08 10:53:49;;;;;;;0.50;0.50;;;;;;;25.89;36.12;97610.53;5020660;28;20037;-30
2021/10/08 10:56:37;;;;;;;0.43;0.38;;;;;;;25.88;35.97;97609.66;5029679;28;20555;-33
2021/10/08 10:59:24;;;;;;;0.43;0.43;;;;;;;25.89;36.06;97602.66;5030856;28;20036;-31
2021/10/08 11:02:02;;;;;;;0.30;0.30;;;;;;;25.88;36.09;97598.28;5035815;28;20029;-35
2021/10/08 11:04:28;;;;;;;0.50;0.50;;;;;;;25.89;35.96;97605.28;5029431;28;20049;-36
2021/10/08 11:07:06;;;;;;;0.70;0.50;;;;;;;25.88;35.96;97598.28;5026102;28;20017;-32
2021/10/08 11:09:32;;;;;;;0.73;0.50;;;;;;;25.88;36.11;97603.53;5027313;28;20068;-37
2021/10/08 11:12:30;;;;;;;0.50;0.40;;;;;;;25.87;36.13;97602.72;5030409;28;20104;-38
2021/10/08 11:15:20;;;;;;;0.40;0.40;;;;;;;25.88;36.11;97598.28;5029754;28;20052;-29
2021/10/08 11:17:58;;;;;;;0.55;0.52;;;;;;;25.88;36.01;97598.28;5029996;28;20028;-31
2021/10/08 11:20:45;;;;;;;0.43;0.43;;;;;;;25.87;36.12;97592.22;5030951;28;20032;-30
2021/10/08 11:23:20;;;;;;;0.47;0.47;;;;;;;25.87;36.23;97600.09;5032269;28;20119;-34
2021/10/08 11:25:57;;;;;;;0.50;0.50;;;;;;;25.88;36.01;97596.53;5031393;28;20033;-36
2021/10/08 11:28:36;;;;;;;0.55;0.50;;;;;;;25.88;36.05;97593.03;5034668;28;20251;-31
2021/10/08 11:31:02;;;;;;;0.40;0.40;;;;;;;25.88;36.19;97595.66;5027240;28;20035;-33
2021/10/08 11:33:44;;;;;;;0.73;0.60;;;;;;;25.88;35.95;97593.03;5027774;28;20026;-32
2021/10/08 11:36:15;;;;;;;0.50;0.43;;;;;;;25.88;36.03;97593.03;5035201;28;20679;-32
2021/10/08 11:38:41;;;;;;;0.50;0.50;;;;;;;25.89;36.17;97589.53;5032874;28;20028;-30